DAH2056 DAAG-EGSS
Flight info
| Callsign | DAH2056 |
|---|---|
| Flight time | 2h 20m |
| Altitude | 34000 |
| Route | SADAF1A SADAF N856 UMURE N863 GIROM DCT AGN DCT SECHE DCT UVELI DCT CNA DCT TUPAR UN861 DIKRO UM185 TELTU |
| Aircraft | B738/M-SDE2E3FGHIRWXY/LB1 |
Departure
| Time | 2026-05-07 12:47 |
|---|---|
| Airport | Houari Boumediene Airport (DAAG) |
Arrival
| Time | 2026-05-07 15:07 |
|---|---|
| Airport | London Stansted Airport (EGSS) |
| Time | Latitude | Longitude | Altitude | Speed | Heading |
|---|---|---|---|---|---|
| 2026-05-07 12:19 | 36.69674 | 3.20283 | 63 ft | 0 kts | 270° |
| 2026-05-07 12:25 | 36.69675 | 3.20279 | 69 ft | 1 kts | 269° |
| 2026-05-07 12:26 | 36.69674 | 3.20283 | 69 ft | 0 kts | 270° |
| 2026-05-07 12:30 | 36.69674 | 3.20308 | 63 ft | 4 kts | 270° |
| 2026-05-07 12:30 | 36.69674 | 3.20336 | 69 ft | 4 kts | 258° |
| 2026-05-07 12:30 | 36.69686 | 3.20362 | 62 ft | 4 kts | 205° |
| 2026-05-07 12:31 | 36.69711 | 3.20368 | 65 ft | 4 kts | 175° |
| 2026-05-07 12:31 | 36.69722 | 3.20367 | 60 ft | 0 kts | 171° |
| 2026-05-07 12:33 | 36.69654 | 3.20371 | 64 ft | 6 kts | 180° |
| 2026-05-07 12:33 | 36.69615 | 3.20388 | 64 ft | 6 kts | 131° |
| 2026-05-07 12:33 | 36.69604 | 3.20435 | 65 ft | 5 kts | 91° |
| 2026-05-07 12:34 | 36.69603 | 3.20479 | 69 ft | 5 kts | 91° |
| 2026-05-07 12:34 | 36.69602 | 3.20545 | 64 ft | 9 kts | 91° |
| 2026-05-07 12:34 | 36.69600 | 3.20624 | 67 ft | 9 kts | 91° |
| 2026-05-07 12:34 | 36.69599 | 3.20701 | 69 ft | 9 kts | 91° |
| 2026-05-07 12:35 | 36.69592 | 3.20772 | 62 ft | 8 kts | 112° |
| 2026-05-07 12:35 | 36.69550 | 3.20813 | 62 ft | 8 kts | 160° |
| 2026-05-07 12:35 | 36.69499 | 3.20834 | 61 ft | 8 kts | 161° |
| 2026-05-07 12:35 | 36.69450 | 3.20855 | 64 ft | 7 kts | 161° |
| 2026-05-07 12:36 | 36.69403 | 3.20876 | 63 ft | 7 kts | 151° |
| 2026-05-07 12:36 | 36.69384 | 3.20929 | 63 ft | 7 kts | 90° |
| 2026-05-07 12:36 | 36.69385 | 3.20988 | 65 ft | 7 kts | 89° |
| 2026-05-07 12:36 | 36.69386 | 3.21055 | 64 ft | 9 kts | 89° |
| 2026-05-07 12:37 | 36.69385 | 3.21159 | 62 ft | 15 kts | 91° |
| 2026-05-07 12:37 | 36.69384 | 3.21307 | 64 ft | 17 kts | 90° |
| 2026-05-07 12:37 | 36.69395 | 3.21453 | 61 ft | 17 kts | 70° |
| 2026-05-07 12:37 | 36.69453 | 3.21572 | 69 ft | 16 kts | 52° |
| 2026-05-07 12:38 | 36.69519 | 3.21681 | 62 ft | 15 kts | 52° |
| 2026-05-07 12:38 | 36.69582 | 3.21784 | 63 ft | 15 kts | 52° |
| 2026-05-07 12:38 | 36.69646 | 3.21889 | 63 ft | 17 kts | 53° |
| 2026-05-07 12:38 | 36.69730 | 3.22027 | 64 ft | 21 kts | 53° |
| 2026-05-07 12:39 | 36.69817 | 3.22170 | 65 ft | 20 kts | 52° |
| 2026-05-07 12:39 | 36.69901 | 3.22307 | 62 ft | 19 kts | 53° |
| 2026-05-07 12:39 | 36.69978 | 3.22436 | 62 ft | 18 kts | 53° |
| 2026-05-07 12:39 | 36.70053 | 3.22560 | 68 ft | 18 kts | 52° |
| 2026-05-07 12:40 | 36.70126 | 3.22678 | 63 ft | 17 kts | 52° |
| 2026-05-07 12:40 | 36.70196 | 3.22792 | 61 ft | 16 kts | 52° |
| 2026-05-07 12:40 | 36.70262 | 3.22903 | 69 ft | 16 kts | 53° |
| 2026-05-07 12:40 | 36.70327 | 3.23007 | 60 ft | 15 kts | 52° |
| 2026-05-07 12:41 | 36.70389 | 3.23108 | 59 ft | 14 kts | 52° |
| 2026-05-07 12:41 | 36.70448 | 3.23205 | 65 ft | 14 kts | 53° |
| 2026-05-07 12:41 | 36.70511 | 3.23307 | 64 ft | 18 kts | 52° |
| 2026-05-07 12:41 | 36.70595 | 3.23443 | 69 ft | 22 kts | 52° |
| 2026-05-07 12:42 | 36.70688 | 3.23596 | 67 ft | 22 kts | 52° |
| 2026-05-07 12:42 | 36.70780 | 3.23746 | 64 ft | 21 kts | 52° |
| 2026-05-07 12:42 | 36.70868 | 3.23891 | 63 ft | 21 kts | 52° |
| 2026-05-07 12:42 | 36.70946 | 3.24036 | 69 ft | 19 kts | 63° |
| 2026-05-07 12:43 | 36.71002 | 3.24175 | 69 ft | 18 kts | 63° |
| 2026-05-07 12:43 | 36.71055 | 3.24309 | 62 ft | 17 kts | 65° |
| 2026-05-07 12:43 | 36.71107 | 3.24439 | 63 ft | 17 kts | 63° |
| 2026-05-07 12:43 | 36.71170 | 3.24576 | 68 ft | 20 kts | 52° |
| 2026-05-07 12:44 | 36.71257 | 3.24717 | 64 ft | 20 kts | 53° |
| 2026-05-07 12:44 | 36.71341 | 3.24855 | 67 ft | 19 kts | 53° |
| 2026-05-07 12:44 | 36.71384 | 3.24933 | 71 ft | 15 kts | 63° |
| 2026-05-07 12:44 | 36.71386 | 3.25019 | 72 ft | 3 kts | 102° |
| 2026-05-07 12:45 | 36.71378 | 3.25042 | 73 ft | 3 kts | 124° |
| 2026-05-07 12:45 | 36.71364 | 3.25060 | 69 ft | 2 kts | 141° |
| 2026-05-07 12:45 | 36.71343 | 3.25080 | 71 ft | 7 kts | 143° |
| 2026-05-07 12:45 | 36.71288 | 3.25111 | 80 ft | 9 kts | 182° |
| 2026-05-07 12:46 | 36.71260 | 3.25084 | 80 ft | 0 kts | 231° |
| 2026-05-07 12:46 | 36.71254 | 3.25075 | 81 ft | 16 kts | 231° |
| 2026-05-07 12:46 | 36.71001 | 3.24667 | 77 ft | 101 kts | 232° |
| 2026-05-07 12:46 | 36.70425 | 3.23724 | 94 ft | 169 kts | 232° |
| 2026-05-07 12:47 | 36.69638 | 3.22456 | 630 ft | 199 kts | 232° |
| 2026-05-07 12:47 | 36.68788 | 3.21015 | 1463 ft | 204 kts | 240° |
| 2026-05-07 12:47 | 36.68556 | 3.19357 | 2514 ft | 197 kts | 283° |
| 2026-05-07 12:47 | 36.69331 | 3.17914 | 3003 ft | 217 kts | 324° |
| 2026-05-07 12:48 | 36.70809 | 3.17218 | 3201 ft | 238 kts | 345° |
| 2026-05-07 12:48 | 36.72447 | 3.16625 | 3579 ft | 250 kts | 343° |
| 2026-05-07 12:48 | 36.74072 | 3.15924 | 3896 ft | 251 kts | 340° |
| 2026-05-07 12:48 | 36.75709 | 3.15093 | 4135 ft | 255 kts | 337° |
| 2026-05-07 12:49 | 36.77331 | 3.14163 | 4709 ft | 256 kts | 335° |
| 2026-05-07 12:49 | 36.78935 | 3.13163 | 5264 ft | 259 kts | 333° |
| 2026-05-07 12:49 | 36.80553 | 3.12086 | 5667 ft | 272 kts | 332° |
| 2026-05-07 12:49 | 36.82252 | 3.10900 | 6081 ft | 285 kts | 330° |
| 2026-05-07 12:50 | 36.83952 | 3.09671 | 6835 ft | 287 kts | 329° |
| 2026-05-07 12:50 | 36.85677 | 3.08388 | 7606 ft | 290 kts | 328° |
| 2026-05-07 12:50 | 36.87417 | 3.07071 | 8317 ft | 295 kts | 328° |
| 2026-05-07 12:50 | 36.89179 | 3.05718 | 9016 ft | 300 kts | 327° |
| 2026-05-07 12:51 | 36.90963 | 3.04338 | 9735 ft | 302 kts | 327° |
| 2026-05-07 12:51 | 36.92763 | 3.02936 | 10381 ft | 310 kts | 326° |
| 2026-05-07 12:51 | 36.94657 | 3.01450 | 10558 ft | 332 kts | 326° |
| 2026-05-07 12:51 | 36.96674 | 2.99862 | 10741 ft | 353 kts | 325° |
| 2026-05-07 12:52 | 36.98804 | 2.98182 | 11046 ft | 368 kts | 325° |
| 2026-05-07 12:52 | 37.00983 | 2.96464 | 11617 ft | 373 kts | 325° |
| 2026-05-07 12:52 | 37.03186 | 2.94726 | 12339 ft | 374 kts | 324° |
| 2026-05-07 12:52 | 37.05394 | 2.92980 | 13009 ft | 376 kts | 324° |
| 2026-05-07 12:53 | 37.07601 | 2.91236 | 13633 ft | 380 kts | 324° |
| 2026-05-07 12:53 | 37.09847 | 2.89457 | 14214 ft | 384 kts | 324° |
| 2026-05-07 12:53 | 37.12114 | 2.87661 | 14812 ft | 387 kts | 324° |
| 2026-05-07 12:53 | 37.14406 | 2.85842 | 15421 ft | 390 kts | 324° |
| 2026-05-07 12:54 | 37.16711 | 2.84012 | 16025 ft | 392 kts | 324° |
| 2026-05-07 12:54 | 37.19027 | 2.82172 | 16579 ft | 396 kts | 324° |
| 2026-05-07 12:54 | 37.21332 | 2.80338 | 17123 ft | 399 kts | 324° |
| 2026-05-07 12:54 | 37.23710 | 2.78445 | 17637 ft | 402 kts | 323° |
| 2026-05-07 12:55 | 37.26057 | 2.76577 | 18165 ft | 405 kts | 323° |
| 2026-05-07 12:55 | 37.28442 | 2.74676 | 18677 ft | 408 kts | 323° |
| 2026-05-07 12:55 | 37.30853 | 2.72752 | 19136 ft | 412 kts | 323° |
| 2026-05-07 12:55 | 37.33296 | 2.70802 | 19592 ft | 416 kts | 323° |
| 2026-05-07 12:56 | 37.35752 | 2.68841 | 20051 ft | 420 kts | 323° |
| 2026-05-07 12:56 | 37.38224 | 2.66864 | 20481 ft | 423 kts | 323° |
| 2026-05-07 12:56 | 37.40721 | 2.64867 | 20896 ft | 427 kts | 323° |
| 2026-05-07 12:56 | 37.43239 | 2.62849 | 21300 ft | 431 kts | 323° |
| 2026-05-07 12:57 | 37.45789 | 2.60805 | 21688 ft | 434 kts | 323° |
| 2026-05-07 12:57 | 37.48312 | 2.58781 | 22059 ft | 438 kts | 323° |
| 2026-05-07 12:57 | 37.50891 | 2.56711 | 22409 ft | 442 kts | 323° |
| 2026-05-07 12:57 | 37.53494 | 2.54620 | 22792 ft | 444 kts | 323° |
| 2026-05-07 12:58 | 37.56113 | 2.52514 | 23143 ft | 448 kts | 323° |
| 2026-05-07 12:58 | 37.58750 | 2.50391 | 23481 ft | 451 kts | 323° |
| 2026-05-07 12:58 | 37.61407 | 2.48251 | 23791 ft | 454 kts | 323° |
| 2026-05-07 12:58 | 37.64083 | 2.46094 | 24101 ft | 458 kts | 323° |
| 2026-05-07 12:59 | 37.66751 | 2.43943 | 24425 ft | 461 kts | 323° |
| 2026-05-07 12:59 | 37.69452 | 2.41763 | 24806 ft | 462 kts | 323° |
| 2026-05-07 12:59 | 37.72151 | 2.39581 | 25146 ft | 464 kts | 323° |
| 2026-05-07 12:59 | 37.74875 | 2.37377 | 25476 ft | 466 kts | 323° |
| 2026-05-07 13:00 | 37.77609 | 2.35164 | 25827 ft | 467 kts | 323° |
| 2026-05-07 13:00 | 37.80349 | 2.32943 | 26167 ft | 468 kts | 323° |
| 2026-05-07 13:00 | 37.83132 | 2.30745 | 26471 ft | 471 kts | 324° |
| 2026-05-07 13:00 | 37.85949 | 2.28595 | 26754 ft | 474 kts | 325° |
| 2026-05-07 13:01 | 37.88784 | 2.26461 | 27061 ft | 475 kts | 325° |
| 2026-05-07 13:01 | 37.91637 | 2.24318 | 27399 ft | 476 kts | 325° |
| 2026-05-07 13:01 | 37.94486 | 2.22172 | 27712 ft | 477 kts | 325° |
| 2026-05-07 13:01 | 37.97334 | 2.20016 | 27983 ft | 478 kts | 324° |
| 2026-05-07 13:02 | 38.00194 | 2.17841 | 28234 ft | 480 kts | 324° |
| 2026-05-07 13:02 | 38.03057 | 2.15656 | 28497 ft | 481 kts | 324° |
| 2026-05-07 13:02 | 38.05894 | 2.13488 | 28768 ft | 482 kts | 324° |
| 2026-05-07 13:02 | 38.08763 | 2.11291 | 29045 ft | 482 kts | 324° |
| 2026-05-07 13:03 | 38.11639 | 2.09089 | 29406 ft | 481 kts | 324° |
| 2026-05-07 13:03 | 38.14493 | 2.06903 | 29818 ft | 478 kts | 324° |
| 2026-05-07 13:03 | 38.17333 | 2.04725 | 30228 ft | 475 kts | 324° |
| 2026-05-07 13:03 | 38.20159 | 2.02555 | 30540 ft | 474 kts | 323° |
| 2026-05-07 13:04 | 38.22989 | 2.00378 | 30800 ft | 474 kts | 323° |
| 2026-05-07 13:04 | 38.25813 | 1.98203 | 31036 ft | 475 kts | 323° |
| 2026-05-07 13:04 | 38.28644 | 1.96022 | 31347 ft | 474 kts | 323° |
| 2026-05-07 13:04 | 38.31459 | 1.93853 | 31648 ft | 472 kts | 322° |
| 2026-05-07 13:05 | 38.34270 | 1.91688 | 31918 ft | 473 kts | 322° |
| 2026-05-07 13:05 | 38.37049 | 1.89546 | 32164 ft | 472 kts | 322° |
| 2026-05-07 13:05 | 38.39853 | 1.87381 | 32438 ft | 471 kts | 322° |
| 2026-05-07 13:05 | 38.42655 | 1.85211 | 32702 ft | 470 kts | 321° |
| 2026-05-07 13:06 | 38.45450 | 1.83042 | 32962 ft | 469 kts | 321° |
| 2026-05-07 13:06 | 38.48240 | 1.80877 | 33234 ft | 468 kts | 321° |
| 2026-05-07 13:06 | 38.51020 | 1.78718 | 33424 ft | 469 kts | 321° |
| 2026-05-07 13:06 | 38.53811 | 1.76551 | 33602 ft | 470 kts | 321° |
| 2026-05-07 13:07 | 38.56603 | 1.74380 | 33877 ft | 467 kts | 321° |
| 2026-05-07 13:07 | 38.59375 | 1.72225 | 34142 ft | 465 kts | 320° |
| 2026-05-07 13:07 | 38.62144 | 1.70069 | 34324 ft | 466 kts | 320° |
| 2026-05-07 13:07 | 38.64915 | 1.67907 | 34473 ft | 467 kts | 320° |
| 2026-05-07 13:08 | 38.67690 | 1.65741 | 34690 ft | 466 kts | 320° |
| 2026-05-07 13:08 | 38.70418 | 1.63612 | 34969 ft | 464 kts | 320° |
| 2026-05-07 13:08 | 38.73175 | 1.61457 | 35162 ft | 463 kts | 320° |
| 2026-05-07 13:08 | 38.75921 | 1.59308 | 35299 ft | 464 kts | 320° |
| 2026-05-07 13:09 | 38.78682 | 1.57144 | 35441 ft | 465 kts | 320° |
| 2026-05-07 13:09 | 38.81450 | 1.54975 | 35615 ft | 464 kts | 320° |
| 2026-05-07 13:09 | 38.84209 | 1.52811 | 35812 ft | 463 kts | 320° |
| 2026-05-07 13:09 | 38.86959 | 1.50652 | 35944 ft | 464 kts | 320° |
| 2026-05-07 13:10 | 38.92483 | 1.46303 | 35934 ft | 465 kts | 320° |
| 2026-05-07 13:10 | 38.97989 | 1.41970 | 35922 ft | 463 kts | 320° |
| 2026-05-07 13:11 | 39.03450 | 1.37670 | 35940 ft | 462 kts | 320° |
| 2026-05-07 13:11 | 39.08921 | 1.33349 | 35946 ft | 460 kts | 320° |
| 2026-05-07 13:12 | 39.14388 | 1.29024 | 35939 ft | 459 kts | 320° |
| 2026-05-07 13:12 | 39.19830 | 1.24718 | 35946 ft | 459 kts | 320° |
| 2026-05-07 13:13 | 39.25475 | 1.20892 | 35934 ft | 473 kts | 336° |
| 2026-05-07 13:13 | 39.28749 | 1.20069 | 35950 ft | 485 kts | 350° |
| 2026-05-07 13:13 | 39.32150 | 1.20117 | 35950 ft | 494 kts | 1° |
| 2026-05-07 13:14 | 39.35552 | 1.20916 | 35936 ft | 501 kts | 13° |
| 2026-05-07 13:14 | 39.38784 | 1.22652 | 35957 ft | 506 kts | 25° |
| 2026-05-07 13:14 | 39.44934 | 1.27126 | 35950 ft | 508 kts | 28° |
| 2026-05-07 13:15 | 39.51083 | 1.31577 | 35943 ft | 509 kts | 26° |
| 2026-05-07 13:15 | 39.57401 | 1.35703 | 35935 ft | 507 kts | 15° |
| 2026-05-07 13:16 | 39.64237 | 1.37435 | 35950 ft | 495 kts | 356° |
| 2026-05-07 13:16 | 39.71014 | 1.36778 | 35960 ft | 487 kts | 347° |
| 2026-05-07 13:17 | 39.77721 | 1.35769 | 35959 ft | 488 kts | 347° |
| 2026-05-07 13:17 | 39.84495 | 1.34809 | 35964 ft | 490 kts | 347° |
| 2026-05-07 13:18 | 39.91283 | 1.33901 | 35965 ft | 491 kts | 348° |
| 2026-05-07 13:18 | 39.98088 | 1.33005 | 35974 ft | 491 kts | 348° |
| 2026-05-07 13:19 | 40.04889 | 1.32104 | 35976 ft | 490 kts | 348° |
| 2026-05-07 13:19 | 40.11672 | 1.31197 | 35970 ft | 490 kts | 348° |
| 2026-05-07 13:20 | 40.18408 | 1.30297 | 35973 ft | 489 kts | 348° |
| 2026-05-07 13:20 | 40.25173 | 1.29388 | 35983 ft | 487 kts | 348° |
| 2026-05-07 13:21 | 40.31910 | 1.28483 | 35975 ft | 486 kts | 348° |
| 2026-05-07 13:21 | 40.38642 | 1.27578 | 35982 ft | 485 kts | 348° |
| 2026-05-07 13:22 | 40.45308 | 1.26677 | 35978 ft | 483 kts | 348° |
| 2026-05-07 13:22 | 40.52004 | 1.25767 | 35984 ft | 483 kts | 348° |
| 2026-05-07 13:23 | 40.58684 | 1.24862 | 35992 ft | 482 kts | 348° |
| 2026-05-07 13:23 | 40.65368 | 1.23953 | 35998 ft | 483 kts | 348° |
| 2026-05-07 13:24 | 40.72021 | 1.23037 | 35993 ft | 484 kts | 348° |
| 2026-05-07 13:24 | 40.78724 | 1.22122 | 36000 ft | 484 kts | 348° |
| 2026-05-07 13:25 | 40.85436 | 1.21201 | 35993 ft | 484 kts | 348° |
| 2026-05-07 13:25 | 40.92149 | 1.20273 | 35991 ft | 484 kts | 348° |
| 2026-05-07 13:26 | 40.98863 | 1.19342 | 35991 ft | 484 kts | 348° |
| 2026-05-07 13:26 | 41.05569 | 1.18412 | 35993 ft | 484 kts | 348° |
| 2026-05-07 13:27 | 41.12224 | 1.17487 | 35992 ft | 484 kts | 348° |
| 2026-05-07 13:27 | 41.18942 | 1.16626 | 35996 ft | 485 kts | 350° |
| 2026-05-07 13:28 | 41.25685 | 1.15959 | 35984 ft | 485 kts | 351° |
| 2026-05-07 13:28 | 41.32409 | 1.15276 | 35987 ft | 484 kts | 350° |
| 2026-05-07 13:29 | 41.39134 | 1.14576 | 35995 ft | 483 kts | 350° |
| 2026-05-07 13:29 | 41.45812 | 1.13887 | 35986 ft | 483 kts | 351° |
| 2026-05-07 13:30 | 41.52526 | 1.13196 | 35982 ft | 482 kts | 351° |
| 2026-05-07 13:30 | 41.59213 | 1.12480 | 35972 ft | 481 kts | 350° |
| 2026-05-07 13:31 | 41.65878 | 1.11735 | 35966 ft | 481 kts | 350° |
| 2026-05-07 13:31 | 41.72555 | 1.11000 | 35960 ft | 480 kts | 350° |
| 2026-05-07 13:32 | 41.79163 | 1.10315 | 35963 ft | 480 kts | 351° |
| 2026-05-07 13:32 | 41.85824 | 1.09620 | 35966 ft | 479 kts | 351° |
| 2026-05-07 13:33 | 41.92486 | 1.08918 | 35963 ft | 480 kts | 351° |
| 2026-05-07 13:33 | 41.98015 | 1.08337 | 35965 ft | 480 kts | 351° |
| 2026-05-07 13:34 | 42.09088 | 1.07154 | 35954 ft | 479 kts | 351° |
| 2026-05-07 13:35 | 42.14658 | 1.06608 | 35954 ft | 478 kts | 351° |
| 2026-05-07 13:35 | 42.21204 | 1.05884 | 35960 ft | 477 kts | 351° |
| 2026-05-07 13:36 | 42.27490 | 1.05171 | 35975 ft | 477 kts | 351° |
| 2026-05-07 13:36 | 42.34070 | 1.04438 | 35957 ft | 477 kts | 351° |
| 2026-05-07 13:37 | 42.40688 | 1.03712 | 35967 ft | 476 kts | 351° |
| 2026-05-07 13:37 | 42.47293 | 1.02987 | 35963 ft | 476 kts | 351° |
| 2026-05-07 13:38 | 42.53893 | 1.02273 | 35967 ft | 476 kts | 351° |
| 2026-05-07 13:38 | 42.60500 | 1.01557 | 35970 ft | 475 kts | 351° |
| 2026-05-07 13:39 | 42.67048 | 1.00842 | 35967 ft | 474 kts | 351° |
| 2026-05-07 13:39 | 42.73635 | 1.00167 | 35961 ft | 474 kts | 351° |
| 2026-05-07 13:40 | 42.80203 | 0.99400 | 35964 ft | 474 kts | 351° |
| 2026-05-07 13:40 | 42.86782 | 0.98669 | 35967 ft | 475 kts | 351° |
| 2026-05-07 13:41 | 42.93370 | 0.97950 | 35969 ft | 475 kts | 351° |
| 2026-05-07 13:41 | 42.99358 | 0.97299 | 35973 ft | 476 kts | 351° |
| 2026-05-07 13:42 | 43.05960 | 0.96573 | 35974 ft | 475 kts | 351° |
| 2026-05-07 13:42 | 43.12563 | 0.95845 | 35972 ft | 475 kts | 351° |
| 2026-05-07 13:43 | 43.19123 | 0.95119 | 35979 ft | 475 kts | 351° |
| 2026-05-07 13:43 | 43.25708 | 0.94386 | 35982 ft | 475 kts | 351° |
| 2026-05-07 13:44 | 43.32292 | 0.93652 | 35980 ft | 475 kts | 351° |
| 2026-05-07 13:44 | 43.38874 | 0.92919 | 35981 ft | 474 kts | 351° |
| 2026-05-07 13:45 | 43.45458 | 0.92184 | 35991 ft | 473 kts | 351° |
| 2026-05-07 13:45 | 43.52023 | 0.91449 | 35989 ft | 473 kts | 351° |
| 2026-05-07 13:46 | 43.58523 | 0.90720 | 35985 ft | 472 kts | 351° |
| 2026-05-07 13:46 | 43.65063 | 0.89984 | 35990 ft | 472 kts | 351° |
| 2026-05-07 13:47 | 43.71607 | 0.89247 | 35991 ft | 471 kts | 352° |
| 2026-05-07 13:47 | 43.78151 | 0.88507 | 35989 ft | 471 kts | 352° |
| 2026-05-07 13:48 | 43.84688 | 0.87768 | 35992 ft | 471 kts | 352° |
| 2026-05-07 13:48 | 43.91037 | 0.85977 | 35992 ft | 462 kts | 334° |
| 2026-05-07 13:49 | 43.96841 | 0.82288 | 35989 ft | 459 kts | 330° |
| 2026-05-07 13:49 | 44.02583 | 0.78463 | 35992 ft | 459 kts | 330° |
| 2026-05-07 13:50 | 44.08360 | 0.74675 | 35994 ft | 459 kts | 331° |
| 2026-05-07 13:50 | 44.14120 | 0.70937 | 35992 ft | 459 kts | 331° |
| 2026-05-07 13:51 | 44.19917 | 0.67175 | 35990 ft | 459 kts | 331° |
| 2026-05-07 13:51 | 44.25721 | 0.63397 | 35992 ft | 460 kts | 331° |
| 2026-05-07 13:52 | 44.31519 | 0.59613 | 35991 ft | 459 kts | 331° |
| 2026-05-07 13:52 | 44.37308 | 0.55824 | 35982 ft | 459 kts | 331° |
| 2026-05-07 13:53 | 44.43095 | 0.52031 | 35988 ft | 458 kts | 331° |
| 2026-05-07 13:53 | 44.48827 | 0.48246 | 35989 ft | 458 kts | 330° |
| 2026-05-07 13:54 | 44.54593 | 0.44416 | 35990 ft | 458 kts | 330° |
| 2026-05-07 13:54 | 44.60356 | 0.40582 | 35988 ft | 458 kts | 330° |
| 2026-05-07 13:55 | 44.66099 | 0.36752 | 35983 ft | 458 kts | 330° |
| 2026-05-07 13:55 | 44.71864 | 0.32900 | 35996 ft | 458 kts | 330° |
| 2026-05-07 13:56 | 44.77585 | 0.29068 | 35988 ft | 458 kts | 330° |
| 2026-05-07 13:56 | 44.83336 | 0.25209 | 35990 ft | 458 kts | 330° |
| 2026-05-07 13:57 | 44.89091 | 0.21385 | 35989 ft | 456 kts | 330° |
| 2026-05-07 13:57 | 44.94792 | 0.17511 | 35996 ft | 454 kts | 330° |
| 2026-05-07 13:58 | 45.00505 | 0.13632 | 35986 ft | 455 kts | 330° |
| 2026-05-07 13:58 | 45.06182 | 0.09792 | 35996 ft | 455 kts | 330° |
| 2026-05-07 13:59 | 45.11895 | 0.05922 | 35992 ft | 455 kts | 330° |
| 2026-05-07 13:59 | 45.17609 | 0.02040 | 35985 ft | 455 kts | 330° |
| 2026-05-07 14:00 | 45.23326 | -0.01854 | 35987 ft | 456 kts | 330° |
| 2026-05-07 14:00 | 45.29050 | -0.05762 | 35995 ft | 457 kts | 330° |
| 2026-05-07 14:01 | 45.34792 | -0.09692 | 35998 ft | 459 kts | 330° |
| 2026-05-07 14:01 | 45.40568 | -0.13652 | 35999 ft | 461 kts | 330° |
| 2026-05-07 14:02 | 45.46332 | -0.17614 | 35998 ft | 463 kts | 330° |
| 2026-05-07 14:02 | 45.52137 | -0.21611 | 35991 ft | 464 kts | 330° |
| 2026-05-07 14:03 | 45.57934 | -0.25614 | 35995 ft | 465 kts | 330° |
| 2026-05-07 14:03 | 45.63759 | -0.29644 | 35988 ft | 465 kts | 330° |
| 2026-05-07 14:04 | 45.69764 | -0.33150 | 35997 ft | 467 kts | 339° |
| 2026-05-07 14:04 | 45.75980 | -0.35860 | 35990 ft | 467 kts | 340° |
| 2026-05-07 14:05 | 45.82214 | -0.38548 | 35988 ft | 466 kts | 340° |
| 2026-05-07 14:05 | 45.88392 | -0.41304 | 35988 ft | 464 kts | 339° |
| 2026-05-07 14:06 | 45.94508 | -0.44080 | 35991 ft | 463 kts | 339° |
| 2026-05-07 14:06 | 46.00668 | -0.46890 | 35990 ft | 462 kts | 339° |
| 2026-05-07 14:07 | 46.06799 | -0.49691 | 35999 ft | 461 kts | 339° |
| 2026-05-07 14:07 | 46.12883 | -0.52474 | 35987 ft | 461 kts | 339° |
| 2026-05-07 14:08 | 46.18992 | -0.55274 | 35990 ft | 460 kts | 339° |
| 2026-05-07 14:08 | 46.24619 | -0.57858 | 35988 ft | 460 kts | 339° |
| 2026-05-07 14:09 | 46.30715 | -0.60667 | 35994 ft | 459 kts | 339° |
| 2026-05-07 14:09 | 46.36792 | -0.63472 | 35993 ft | 459 kts | 339° |
| 2026-05-07 14:10 | 46.42895 | -0.66233 | 35984 ft | 460 kts | 343° |
| 2026-05-07 14:10 | 46.49213 | -0.67599 | 35993 ft | 464 kts | 351° |
| 2026-05-07 14:11 | 46.55639 | -0.68540 | 35990 ft | 464 kts | 351° |
| 2026-05-07 14:11 | 46.62074 | -0.69528 | 35998 ft | 465 kts | 351° |
| 2026-05-07 14:12 | 46.68499 | -0.70587 | 35996 ft | 465 kts | 351° |
| 2026-05-07 14:12 | 46.74931 | -0.71676 | 36000 ft | 465 kts | 351° |
| 2026-05-07 14:13 | 46.81376 | -0.72771 | 35999 ft | 466 kts | 351° |
| 2026-05-07 14:13 | 46.87815 | -0.73865 | 35999 ft | 466 kts | 351° |
| 2026-05-07 14:14 | 46.94219 | -0.74956 | 36005 ft | 466 kts | 351° |
| 2026-05-07 14:14 | 47.00663 | -0.76055 | 35998 ft | 466 kts | 351° |
| 2026-05-07 14:15 | 47.07118 | -0.77157 | 36004 ft | 466 kts | 351° |
| 2026-05-07 14:15 | 47.13515 | -0.78252 | 36002 ft | 465 kts | 351° |
| 2026-05-07 14:16 | 47.19941 | -0.79356 | 36003 ft | 465 kts | 351° |
| 2026-05-07 14:16 | 47.26374 | -0.80463 | 36000 ft | 464 kts | 351° |
| 2026-05-07 14:17 | 47.32790 | -0.81570 | 36001 ft | 463 kts | 351° |
| 2026-05-07 14:17 | 47.39193 | -0.82680 | 35998 ft | 463 kts | 351° |
| 2026-05-07 14:18 | 47.45563 | -0.83783 | 36004 ft | 463 kts | 351° |
| 2026-05-07 14:18 | 47.51957 | -0.84897 | 36002 ft | 462 kts | 351° |
| 2026-05-07 14:19 | 47.58364 | -0.85882 | 36009 ft | 463 kts | 353° |
| 2026-05-07 14:19 | 47.64801 | -0.86624 | 36012 ft | 463 kts | 353° |
| 2026-05-07 14:20 | 47.71180 | -0.87350 | 36012 ft | 462 kts | 353° |
| 2026-05-07 14:20 | 47.77613 | -0.88116 | 36013 ft | 463 kts | 353° |
| 2026-05-07 14:21 | 47.84032 | -0.88902 | 36016 ft | 463 kts | 353° |
| 2026-05-07 14:21 | 47.90457 | -0.89692 | 36019 ft | 462 kts | 353° |
| 2026-05-07 14:22 | 47.96872 | -0.90485 | 36019 ft | 463 kts | 353° |
| 2026-05-07 14:22 | 48.03253 | -0.91275 | 36022 ft | 463 kts | 353° |
| 2026-05-07 14:23 | 48.08607 | -0.91940 | 36023 ft | 463 kts | 353° |
| 2026-05-07 14:23 | 48.16084 | -0.92869 | 36015 ft | 464 kts | 353° |
| 2026-05-07 14:24 | 48.21473 | -0.93537 | 36020 ft | 463 kts | 353° |
| 2026-05-07 14:24 | 48.27870 | -0.94337 | 36018 ft | 462 kts | 353° |
| 2026-05-07 14:25 | 48.34249 | -0.95135 | 36019 ft | 462 kts | 353° |
| 2026-05-07 14:25 | 48.40666 | -0.95940 | 36020 ft | 461 kts | 353° |
| 2026-05-07 14:26 | 48.47067 | -0.96745 | 36019 ft | 461 kts | 353° |
| 2026-05-07 14:26 | 48.53459 | -0.97552 | 36017 ft | 460 kts | 353° |
| 2026-05-07 14:27 | 48.59842 | -0.98360 | 36018 ft | 460 kts | 353° |
| 2026-05-07 14:27 | 48.66176 | -0.99163 | 36027 ft | 459 kts | 353° |
| 2026-05-07 14:28 | 48.72550 | -0.99972 | 36027 ft | 459 kts | 353° |
| 2026-05-07 14:28 | 48.78935 | -1.00786 | 36027 ft | 459 kts | 353° |
| 2026-05-07 14:29 | 48.85311 | -1.01601 | 36048 ft | 459 kts | 353° |
| 2026-05-07 14:29 | 48.91639 | -1.02411 | 36036 ft | 460 kts | 353° |
| 2026-05-07 14:30 | 48.98012 | -1.03230 | 36038 ft | 460 kts | 353° |
| 2026-05-07 14:30 | 49.04395 | -1.04050 | 36051 ft | 460 kts | 353° |
| 2026-05-07 14:31 | 49.10782 | -1.04874 | 36033 ft | 461 kts | 353° |
| 2026-05-07 14:31 | 49.17158 | -1.05698 | 36035 ft | 461 kts | 353° |
| 2026-05-07 14:32 | 49.23548 | -1.06528 | 36053 ft | 461 kts | 353° |
| 2026-05-07 14:32 | 49.29936 | -1.07359 | 36040 ft | 461 kts | 353° |
| 2026-05-07 14:33 | 49.36325 | -1.08191 | 36045 ft | 460 kts | 353° |
| 2026-05-07 14:33 | 49.42667 | -1.09020 | 36053 ft | 460 kts | 353° |
| 2026-05-07 14:34 | 49.49049 | -1.09857 | 36047 ft | 460 kts | 353° |
| 2026-05-07 14:34 | 49.55433 | -1.10514 | 36017 ft | 462 kts | 2° |
| 2026-05-07 14:34 | 49.58621 | -1.09664 | 35753 ft | 468 kts | 17° |
| 2026-05-07 14:35 | 49.61588 | -1.07628 | 35519 ft | 468 kts | 31° |
| 2026-05-07 14:35 | 49.64203 | -1.04649 | 35295 ft | 467 kts | 38° |
| 2026-05-07 14:35 | 49.66721 | -1.01478 | 35054 ft | 468 kts | 38° |
| 2026-05-07 14:35 | 49.69268 | -0.98346 | 34796 ft | 469 kts | 37° |
| 2026-05-07 14:36 | 49.71492 | -0.95681 | 34598 ft | 470 kts | 36° |
| 2026-05-07 14:36 | 49.74243 | -0.92964 | 34330 ft | 469 kts | 25° |
| 2026-05-07 14:36 | 49.77248 | -0.91043 | 34097 ft | 466 kts | 15° |
| 2026-05-07 14:36 | 49.80380 | -0.89851 | 33845 ft | 463 kts | 5° |
| 2026-05-07 14:37 | 49.83559 | -0.89355 | 33615 ft | 461 kts | 2° |
| 2026-05-07 14:37 | 49.89954 | -0.88604 | 32942 ft | 460 kts | 2° |
| 2026-05-07 14:37 | 49.93136 | -0.88190 | 32538 ft | 455 kts | 3° |
| 2026-05-07 14:38 | 49.96268 | -0.87748 | 32061 ft | 451 kts | 3° |
| 2026-05-07 14:38 | 49.99383 | -0.87295 | 31610 ft | 447 kts | 3° |
| 2026-05-07 14:38 | 50.02466 | -0.86848 | 31166 ft | 443 kts | 3° |
| 2026-05-07 14:38 | 50.05531 | -0.86413 | 30717 ft | 439 kts | 4° |
| 2026-05-07 14:39 | 50.08560 | -0.85986 | 30275 ft | 435 kts | 4° |
| 2026-05-07 14:39 | 50.11567 | -0.85561 | 29831 ft | 432 kts | 4° |
| 2026-05-07 14:39 | 50.14508 | -0.85146 | 29388 ft | 429 kts | 4° |
| 2026-05-07 14:39 | 50.17506 | -0.84721 | 28929 ft | 426 kts | 4° |
| 2026-05-07 14:40 | 50.20407 | -0.84309 | 28482 ft | 423 kts | 4° |
| 2026-05-07 14:40 | 50.23325 | -0.83894 | 28035 ft | 420 kts | 4° |
| 2026-05-07 14:40 | 50.26231 | -0.83481 | 27590 ft | 417 kts | 4° |
| 2026-05-07 14:40 | 50.29152 | -0.83064 | 27137 ft | 415 kts | 4° |
| 2026-05-07 14:41 | 50.31978 | -0.82660 | 26705 ft | 412 kts | 4° |
| 2026-05-07 14:41 | 50.34822 | -0.82250 | 26267 ft | 410 kts | 4° |
| 2026-05-07 14:41 | 50.37650 | -0.81837 | 25834 ft | 407 kts | 4° |
| 2026-05-07 14:41 | 50.40466 | -0.81424 | 25392 ft | 405 kts | 4° |
| 2026-05-07 14:42 | 50.43266 | -0.81014 | 24959 ft | 403 kts | 4° |
| 2026-05-07 14:42 | 50.46053 | -0.80604 | 24521 ft | 401 kts | 4° |
| 2026-05-07 14:42 | 50.48810 | -0.80199 | 24094 ft | 399 kts | 4° |
| 2026-05-07 14:42 | 50.51578 | -0.79792 | 23662 ft | 397 kts | 4° |
| 2026-05-07 14:43 | 50.54324 | -0.79388 | 23234 ft | 395 kts | 4° |
| 2026-05-07 14:43 | 50.57055 | -0.78986 | 22810 ft | 393 kts | 4° |
| 2026-05-07 14:43 | 50.59767 | -0.78586 | 22395 ft | 391 kts | 4° |
| 2026-05-07 14:43 | 50.62479 | -0.78186 | 21965 ft | 390 kts | 4° |
| 2026-05-07 14:44 | 50.65169 | -0.77797 | 21545 ft | 388 kts | 4° |
| 2026-05-07 14:44 | 50.67853 | -0.77411 | 21123 ft | 386 kts | 4° |
| 2026-05-07 14:44 | 50.70521 | -0.77028 | 20702 ft | 385 kts | 4° |
| 2026-05-07 14:44 | 50.73179 | -0.76645 | 20283 ft | 383 kts | 4° |
| 2026-05-07 14:45 | 50.75825 | -0.76264 | 19872 ft | 381 kts | 4° |
| 2026-05-07 14:45 | 50.78465 | -0.75883 | 19455 ft | 380 kts | 4° |
| 2026-05-07 14:45 | 50.81093 | -0.75438 | 19039 ft | 379 kts | 10° |
| 2026-05-07 14:45 | 50.83568 | -0.74145 | 18867 ft | 371 kts | 21° |
| 2026-05-07 14:46 | 50.85940 | -0.72587 | 18654 ft | 366 kts | 22° |
| 2026-05-07 14:46 | 50.88267 | -0.71030 | 18474 ft | 364 kts | 22° |
| 2026-05-07 14:46 | 50.90619 | -0.69463 | 18270 ft | 369 kts | 22° |
| 2026-05-07 14:46 | 50.93001 | -0.67888 | 18078 ft | 372 kts | 22° |
| 2026-05-07 14:47 | 50.95389 | -0.66323 | 17870 ft | 370 kts | 21° |
| 2026-05-07 14:47 | 50.97731 | -0.64796 | 17676 ft | 368 kts | 21° |
| 2026-05-07 14:47 | 51.00123 | -0.63241 | 17481 ft | 366 kts | 21° |
| 2026-05-07 14:47 | 51.02475 | -0.61713 | 17282 ft | 365 kts | 21° |
| 2026-05-07 14:48 | 51.04800 | -0.60203 | 17098 ft | 366 kts | 21° |
| 2026-05-07 14:48 | 51.07147 | -0.58680 | 16899 ft | 366 kts | 21° |
| 2026-05-07 14:48 | 51.09504 | -0.57148 | 16701 ft | 365 kts | 21° |
| 2026-05-07 14:48 | 51.11888 | -0.55596 | 16505 ft | 364 kts | 21° |
| 2026-05-07 14:49 | 51.14200 | -0.54090 | 16312 ft | 363 kts | 22° |
| 2026-05-07 14:49 | 51.16537 | -0.52566 | 16119 ft | 362 kts | 22° |
| 2026-05-07 14:49 | 51.18888 | -0.51031 | 15910 ft | 360 kts | 22° |
| 2026-05-07 14:49 | 51.21201 | -0.49518 | 15723 ft | 358 kts | 22° |
| 2026-05-07 14:50 | 51.23502 | -0.48010 | 15526 ft | 356 kts | 22° |
| 2026-05-07 14:50 | 51.25686 | -0.46274 | 15335 ft | 345 kts | 31° |
| 2026-05-07 14:50 | 51.27608 | -0.44137 | 15124 ft | 329 kts | 40° |
| 2026-05-07 14:50 | 51.29223 | -0.41680 | 14968 ft | 313 kts | 49° |
| 2026-05-07 14:51 | 51.30507 | -0.38978 | 14838 ft | 297 kts | 58° |
| 2026-05-07 14:51 | 51.31549 | -0.36232 | 14738 ft | 283 kts | 60° |
| 2026-05-07 14:51 | 51.32526 | -0.33548 | 14670 ft | 277 kts | 60° |
| 2026-05-07 14:51 | 51.33493 | -0.30868 | 14596 ft | 280 kts | 61° |
| 2026-05-07 14:52 | 51.34465 | -0.28165 | 14549 ft | 280 kts | 61° |
| 2026-05-07 14:52 | 51.35421 | -0.25496 | 14521 ft | 279 kts | 61° |
| 2026-05-07 14:52 | 51.36382 | -0.22808 | 14519 ft | 277 kts | 61° |
| 2026-05-07 14:52 | 51.37348 | -0.20102 | 14525 ft | 275 kts | 61° |
| 2026-05-07 14:53 | 51.38378 | -0.17528 | 14511 ft | 275 kts | 52° |
| 2026-05-07 14:53 | 51.39642 | -0.15203 | 14071 ft | 289 kts | 47° |
| 2026-05-07 14:53 | 51.41045 | -0.12853 | 13854 ft | 287 kts | 46° |
| 2026-05-07 14:53 | 51.42423 | -0.10575 | 13682 ft | 280 kts | 46° |
| 2026-05-07 14:54 | 51.43758 | -0.08378 | 13476 ft | 270 kts | 46° |
| 2026-05-07 14:54 | 51.45018 | -0.06310 | 13393 ft | 256 kts | 46° |
| 2026-05-07 14:54 | 51.46242 | -0.04301 | 13278 ft | 242 kts | 46° |
| 2026-05-07 14:54 | 51.47380 | -0.02438 | 13123 ft | 232 kts | 46° |
| 2026-05-07 14:55 | 51.48530 | -0.00554 | 12586 ft | 240 kts | 46° |
| 2026-05-07 14:55 | 51.49799 | 0.01206 | 12089 ft | 245 kts | 24° |
| 2026-05-07 14:55 | 51.51455 | 0.01575 | 11553 ft | 247 kts | 345° |
| 2026-05-07 14:55 | 51.53063 | 0.00610 | 11065 ft | 247 kts | 333° |
| 2026-05-07 14:56 | 51.54569 | -0.00810 | 10507 ft | 254 kts | 323° |
| 2026-05-07 14:56 | 51.55904 | -0.02704 | 9968 ft | 259 kts | 312° |
| 2026-05-07 14:56 | 51.57008 | -0.05011 | 9430 ft | 263 kts | 301° |
| 2026-05-07 14:56 | 51.57829 | -0.07640 | 8889 ft | 266 kts | 290° |
| 2026-05-07 14:57 | 51.58338 | -0.10517 | 8349 ft | 269 kts | 280° |
| 2026-05-07 14:57 | 51.58451 | -0.13515 | 7762 ft | 272 kts | 259° |
| 2026-05-07 14:57 | 51.57647 | -0.16218 | 7215 ft | 272 kts | 225° |
| 2026-05-07 14:57 | 51.56040 | -0.17742 | 6675 ft | 272 kts | 192° |
| 2026-05-07 14:58 | 51.54180 | -0.17580 | 6143 ft | 271 kts | 159° |
| 2026-05-07 14:58 | 51.52624 | -0.16023 | 5893 ft | 260 kts | 133° |
| 2026-05-07 14:58 | 51.51697 | -0.13628 | 5622 ft | 251 kts | 107° |
| 2026-05-07 14:58 | 51.51555 | -0.10912 | 5363 ft | 242 kts | 80° |
| 2026-05-07 14:59 | 51.52146 | -0.08451 | 5113 ft | 235 kts | 56° |
| 2026-05-07 14:59 | 51.53242 | -0.06551 | 4856 ft | 233 kts | 36° |
| 2026-05-07 14:59 | 51.54687 | -0.05391 | 4620 ft | 233 kts | 19° |
| 2026-05-07 14:59 | 51.56238 | -0.04558 | 4368 ft | 235 kts | 19° |
| 2026-05-07 15:00 | 51.57793 | -0.03741 | 4149 ft | 236 kts | 18° |
| 2026-05-07 15:00 | 51.59350 | -0.02924 | 3873 ft | 236 kts | 19° |
| 2026-05-07 15:00 | 51.60897 | -0.02116 | 3645 ft | 235 kts | 19° |
| 2026-05-07 15:00 | 51.62455 | -0.01290 | 3389 ft | 235 kts | 19° |
| 2026-05-07 15:01 | 51.64000 | -0.00473 | 3120 ft | 233 kts | 19° |
| 2026-05-07 15:01 | 51.65521 | 0.00336 | 2850 ft | 227 kts | 19° |
| 2026-05-07 15:01 | 51.66987 | 0.01124 | 2628 ft | 219 kts | 20° |
| 2026-05-07 15:01 | 51.68395 | 0.01877 | 2509 ft | 206 kts | 20° |
| 2026-05-07 15:02 | 51.69689 | 0.02580 | 2496 ft | 189 kts | 20° |
| 2026-05-07 15:02 | 51.70925 | 0.03240 | 2549 ft | 188 kts | 20° |
| 2026-05-07 15:02 | 51.72160 | 0.03893 | 2514 ft | 184 kts | 20° |
| 2026-05-07 15:02 | 51.73346 | 0.04527 | 2509 ft | 175 kts | 20° |
| 2026-05-07 15:03 | 51.74475 | 0.05123 | 2549 ft | 170 kts | 20° |
| 2026-05-07 15:03 | 51.75590 | 0.05724 | 2564 ft | 165 kts | 20° |
| 2026-05-07 15:03 | 51.76676 | 0.06314 | 2522 ft | 161 kts | 22° |
| 2026-05-07 15:03 | 51.77607 | 0.07249 | 2547 ft | 156 kts | 42° |
| 2026-05-07 15:04 | 51.78424 | 0.08374 | 2519 ft | 152 kts | 44° |
| 2026-05-07 15:04 | 51.79191 | 0.09506 | 2509 ft | 147 kts | 45° |
| 2026-05-07 15:04 | 51.79935 | 0.10623 | 2477 ft | 147 kts | 45° |
| 2026-05-07 15:04 | 51.80687 | 0.11751 | 2275 ft | 149 kts | 46° |
| 2026-05-07 15:05 | 51.81450 | 0.12848 | 2095 ft | 145 kts | 42° |
| 2026-05-07 15:05 | 51.82172 | 0.13981 | 1885 ft | 143 kts | 50° |
| 2026-05-07 15:05 | 51.82890 | 0.15095 | 1697 ft | 143 kts | 45° |
| 2026-05-07 15:05 | 51.83624 | 0.16169 | 1500 ft | 143 kts | 46° |
| 2026-05-07 15:06 | 51.84353 | 0.17260 | 1310 ft | 143 kts | 46° |
| 2026-05-07 15:06 | 51.85083 | 0.18354 | 1124 ft | 144 kts | 46° |
| 2026-05-07 15:06 | 51.85810 | 0.19446 | 934 ft | 142 kts | 46° |
| 2026-05-07 15:06 | 51.86532 | 0.20530 | 755 ft | 142 kts | 46° |
| 2026-05-07 15:07 | 51.87258 | 0.21619 | 573 ft | 142 kts | 45° |
| 2026-05-07 15:07 | 51.87982 | 0.22705 | 384 ft | 141 kts | 45° |
| 2026-05-07 15:07 | 51.88644 | 0.23706 | 334 ft | 91 kts | 22° |
| 2026-05-07 15:07 | 51.88961 | 0.24144 | 337 ft | 42 kts | 102° |
| 2026-05-07 15:08 | 51.88920 | 0.24489 | 352 ft | 24 kts | 127° |
| 2026-05-07 15:08 | 51.88907 | 0.24523 | 351 ft | 0 kts | 53° |
| 2026-05-07 15:08 | 51.88977 | 0.24682 | 352 ft | 23 kts | 44° |
| 2026-05-07 15:08 | 51.89090 | 0.24848 | 355 ft | 22 kts | 43° |
| 2026-05-07 15:09 | 51.89180 | 0.24985 | 354 ft | 11 kts | 43° |
| 2026-05-07 15:09 | 51.89219 | 0.25055 | 355 ft | 9 kts | 57° |
| 2026-05-07 15:09 | 51.89256 | 0.25154 | 356 ft | 11 kts | 57° |
| 2026-05-07 15:09 | 51.89303 | 0.25240 | 348 ft | 10 kts | 43° |
| 2026-05-07 15:10 | 51.89353 | 0.25315 | 348 ft | 10 kts | 43° |
| 2026-05-07 15:10 | 51.89402 | 0.25388 | 350 ft | 10 kts | 43° |
| 2026-05-07 15:10 | 51.89451 | 0.25462 | 350 ft | 10 kts | 43° |
| 2026-05-07 15:10 | 51.89499 | 0.25535 | 348 ft | 9 kts | 43° |
| 2026-05-07 15:11 | 51.89546 | 0.25605 | 352 ft | 9 kts | 43° |
| 2026-05-07 15:11 | 51.89589 | 0.25671 | 355 ft | 7 kts | 43° |
| 2026-05-07 15:11 | 51.89609 | 0.25735 | 348 ft | 6 kts | 83° |
| 2026-05-07 15:11 | 51.89593 | 0.25795 | 348 ft | 5 kts | 132° |
| 2026-05-07 15:12 | 51.89565 | 0.25828 | 355 ft | 5 kts | 148° |
| 2026-05-07 15:12 | 51.89533 | 0.25859 | 348 ft | 6 kts | 149° |
| 2026-05-07 15:12 | 51.89529 | 0.25864 | 351 ft | 0 kts | 148° |
| 2026-05-07 15:12 | 51.89521 | 0.25873 | 348 ft | 5 kts | 142° |
| 2026-05-07 15:13 | 51.89499 | 0.25914 | 351 ft | 1 kts | 114° |
| 2026-05-07 15:13 | 51.89498 | 0.25917 | 351 ft | 1 kts | 109° |
| 2026-05-07 15:13 | 51.89497 | 0.25934 | 352 ft | 2 kts | 83° |
| 2026-05-07 15:13 | 51.89499 | 0.25939 | 348 ft | 0 kts | 73° |
| 2026-05-07 15:14 | 51.89501 | 0.25945 | 348 ft | 2 kts | 58° |
| 2026-05-07 15:14 | 51.89507 | 0.25953 | 348 ft | 1 kts | 39° |
| 2026-05-07 15:14 | 51.89518 | 0.25968 | 348 ft | 1 kts | 43° |
| 2026-05-07 15:14 | 51.89522 | 0.25975 | 348 ft | 1 kts | 42° |
| 2026-05-07 15:15 | 51.89525 | 0.25979 | 348 ft | 0 kts | 42° |
| 2026-05-07 15:15 | 51.89526 | 0.25980 | 348 ft | 1 kts | 42° |
| 2026-05-07 15:15 | 51.89529 | 0.25984 | 353 ft | 0 kts | 42° |
| 2026-05-07 15:15 | 51.89529 | 0.25985 | 348 ft | 0 kts | 42° |
| 2026-05-07 15:16 | 51.89530 | 0.25986 | 348 ft | 0 kts | 42° |